createdAt,value
2018-07-11T00:58:33.729Z,99.90
2018-07-11T01:01:16.155Z,99.90
2018-07-11T01:03:49.482Z,99.90
2018-07-11T01:06:20.095Z,99.90
2018-07-11T01:08:53.232Z,99.90
2018-07-11T01:11:24.388Z,99.90
2018-07-11T01:13:53.322Z,99.90
2018-07-11T01:16:23.286Z,99.90
2018-07-11T01:19:00.773Z,99.90
2018-07-11T01:21:29.995Z,99.90
2018-07-11T01:23:58.664Z,99.90
2018-07-11T01:26:38.160Z,99.90
2018-07-11T01:29:07.070Z,99.90
2018-07-11T01:31:35.895Z,99.90
2018-07-11T01:34:05.449Z,99.90
2018-07-11T01:36:34.909Z,99.90
2018-07-11T01:39:04.872Z,99.90
2018-07-11T01:41:33.711Z,99.90
2018-07-11T01:44:02.169Z,99.90
2018-07-11T01:46:50.030Z,99.90
2018-07-11T01:49:19.357Z,99.90
2018-07-11T01:51:59.344Z,99.90
2018-07-11T01:54:29.280Z,99.90
2018-07-11T01:59:28.879Z,99.90
2018-07-11T02:01:58.295Z,99.90
2018-07-11T02:04:27.420Z,99.90
2018-07-11T02:06:56.196Z,99.90
2018-07-11T02:11:53.312Z,99.90
2018-07-11T02:14:21.818Z,99.90
2018-07-11T02:16:51.579Z,99.90
2018-07-11T02:19:21.431Z,99.90
2018-07-11T02:21:50.737Z,99.90
2018-07-11T02:24:20.975Z,99.90
2018-07-11T02:26:49.639Z,99.90
2018-07-11T02:29:18.067Z,99.90
2018-07-11T02:31:46.555Z,99.90
2018-07-11T02:34:16.369Z,99.90
2018-07-11T02:36:45.049Z,99.90
2018-07-11T02:39:13.978Z,99.90
2018-07-11T02:41:42.771Z,99.90
2018-07-11T02:44:11.218Z,99.90
2018-07-11T02:46:46.140Z,99.90
2018-07-11T02:49:15.042Z,99.90
2018-07-11T02:51:44.019Z,99.90
2018-07-11T02:54:12.543Z,99.90
2018-07-11T02:56:41.220Z,99.90
2018-07-11T02:59:09.623Z,99.90
2018-07-11T03:01:38.572Z,99.90
2018-07-11T03:04:07.213Z,99.90
2018-07-11T03:06:36.160Z,99.90
2018-07-11T03:09:05.242Z,99.90
2018-07-11T03:11:33.676Z,99.90
2018-07-11T03:14:02.411Z,99.90
2018-07-11T03:16:31.543Z,99.90
2018-07-11T03:19:00.903Z,99.90
2018-07-11T03:21:30.461Z,99.90
2018-07-11T03:23:59.812Z,99.90
2018-07-11T03:26:28.500Z,99.90
2018-07-11T03:28:56.980Z,99.90
2018-07-11T03:31:26.140Z,99.90
2018-07-11T03:33:54.551Z,99.90
2018-07-11T03:36:23.037Z,99.90
2018-07-11T03:38:51.684Z,99.90
2018-07-11T03:41:20.414Z,99.90
2018-07-11T03:43:48.831Z,99.90
2018-07-11T03:46:17.305Z,99.90
2018-07-11T03:48:46.309Z,99.90
2018-07-11T03:51:15.516Z,99.90
2018-07-11T03:53:44.110Z,99.90
2018-07-11T03:56:12.500Z,99.90
2018-07-11T03:58:41.493Z,99.90
2018-07-11T04:03:38.511Z,99.90
2018-07-11T04:06:06.966Z,99.90
2018-07-11T04:08:36.022Z,99.90
2018-07-11T04:11:04.763Z,99.90
2018-07-11T04:13:33.205Z,99.90
2018-07-11T04:16:03.078Z,99.90
2018-07-11T04:18:32.072Z,99.90
2018-07-11T04:21:01.724Z,99.90
2018-07-11T04:23:30.372Z,99.90
2018-07-11T04:25:58.945Z,99.90
2018-07-11T04:28:28.766Z,99.90
2018-07-11T04:30:59.031Z,99.90
2018-07-11T04:33:27.526Z,99.90
2018-07-11T04:35:57.346Z,99.90
2018-07-11T04:38:26.726Z,99.90
2018-07-11T04:40:55.219Z,99.90
2018-07-11T04:43:26.476Z,99.90
2018-07-11T04:45:55.341Z,99.90
2018-07-11T04:48:23.949Z,99.90
2018-07-11T04:50:53.216Z,99.90
2018-07-11T04:53:27.957Z,99.90
2018-07-11T04:56:01.364Z,99.90
2018-07-11T04:58:31.299Z,99.90
2018-07-11T05:01:00.424Z,99.90
2018-07-11T05:03:29.629Z,99.90
2018-07-11T05:08:27.053Z,99.90
2018-07-11T05:10:55.702Z,99.90
2018-07-11T05:13:24.896Z,99.90
2018-07-11T05:15:53.333Z,99.90
2018-07-11T05:18:22.550Z,99.90
2018-07-11T05:20:51.258Z,99.90
2018-07-11T05:23:19.832Z,99.90
2018-07-11T05:25:48.260Z,99.90
2018-07-11T05:28:17.259Z,99.90
2018-07-11T05:30:45.877Z,99.90
2018-07-11T05:33:14.816Z,99.90
2018-07-11T05:35:43.697Z,99.90
2018-07-11T05:38:12.141Z,99.90
2018-07-11T05:40:41.108Z,99.90
2018-07-11T05:43:10.439Z,99.90
2018-07-11T05:45:39.140Z,99.90
2018-07-11T05:48:08.065Z,99.90
2018-07-11T05:50:36.687Z,99.90
2018-07-11T05:53:05.187Z,99.90
2018-07-11T05:55:34.140Z,99.90
2018-07-11T05:58:03.304Z,99.90
2018-07-11T06:00:31.936Z,99.90
2018-07-11T06:03:00.936Z,99.90
2018-07-11T06:05:32.963Z,99.90
2018-07-11T06:08:03.152Z,99.90
2018-07-11T06:10:31.623Z,99.90
2018-07-11T06:13:00.055Z,99.90
2018-07-11T06:15:29.313Z,99.90
2018-07-11T06:17:57.929Z,99.90
2018-07-11T06:20:26.644Z,99.90
2018-07-11T06:22:55.278Z,99.90
2018-07-11T06:25:24.352Z,99.90
2018-07-11T06:27:53.387Z,99.90
2018-07-11T06:30:22.000Z,99.90
2018-07-11T06:32:50.667Z,99.90
2018-07-11T06:35:19.342Z,99.90
2018-07-11T06:37:48.228Z,99.90
2018-07-11T06:40:16.629Z,99.90
2018-07-11T06:42:45.360Z,99.90
2018-07-11T06:45:15.580Z,99.90
2018-07-11T06:47:44.117Z,99.90
2018-07-11T06:50:12.596Z,99.90
2018-07-11T06:52:41.194Z,99.90
2018-07-11T06:55:10.040Z,99.90
2018-07-11T06:57:38.508Z,99.90
2018-07-11T07:00:07.067Z,99.90
2018-07-11T07:02:35.511Z,99.60
2018-07-11T07:05:04.365Z,97.60
2018-07-11T07:07:33.540Z,95.90
2018-07-11T07:10:02.654Z,95.20
2018-07-11T07:12:32.078Z,94.90
2018-07-11T07:15:01.057Z,93.90
2018-07-11T07:17:29.853Z,90.90
2018-07-11T07:19:59.249Z,89.80
2018-07-11T07:22:29.185Z,88.40
2018-07-11T07:24:57.595Z,85.80
2018-07-11T07:27:26.578Z,86.80
2018-07-11T07:29:55.501Z,82.60
2018-07-11T07:32:23.921Z,85.60
2018-07-11T07:34:52.876Z,84.60
2018-07-11T07:37:21.801Z,86.30
2018-07-11T07:39:50.285Z,84.30
2018-07-11T07:42:19.148Z,76.50
2018-07-11T07:44:48.365Z,79.70
2018-07-11T07:47:22.106Z,79.70
2018-07-11T07:49:51.673Z,76.80
2018-07-11T07:52:20.577Z,79.80
2018-07-11T07:54:49.687Z,78.10
2018-07-11T07:57:18.297Z,84.80
2018-07-11T07:59:47.349Z,89.30
2018-07-11T08:02:16.377Z,89.20
2018-07-11T08:04:46.228Z,82.10
2018-07-11T08:07:15.529Z,78.30
2018-07-11T08:09:44.174Z,75.50
2018-07-11T08:12:12.847Z,82.90
2018-07-11T08:14:41.996Z,84.40
2018-07-11T08:17:11.104Z,92.60
2018-07-11T08:19:40.608Z,92.30
2018-07-11T08:22:20.733Z,98.60
2018-07-11T08:25:01.106Z,97.50
2018-07-11T08:30:17.220Z,91.60
2018-07-11T08:32:56.495Z,94.40
2018-07-11T08:35:54.177Z,81.60
2018-07-11T08:38:34.281Z,84.20
2018-07-11T08:41:15.301Z,78.40
2018-07-11T08:44:44.564Z,77.70
2018-07-11T08:47:27.255Z,63.90
2018-07-11T08:52:14.338Z,62.00
2018-07-11T08:56:57.909Z,66.90
2018-07-11T08:59:37.484Z,68.50
2018-07-11T09:02:18.952Z,73.10
2018-07-11T09:07:05.166Z,75.80
2018-07-11T09:11:51.221Z,79.90
2018-07-11T09:14:29.076Z,82.70
2018-07-11T09:19:12.415Z,89.90
2018-07-11T09:23:58.216Z,91.30
2018-07-11T09:26:28.594Z,93.60
2018-07-11T09:28:57.119Z,98.80
2018-07-11T09:31:26.561Z,97.80
2018-07-11T09:33:55.446Z,99.90
2018-07-11T09:36:24.072Z,99.90
2018-07-11T09:38:53.870Z,99.90
2018-07-11T09:41:22.602Z,99.90
2018-07-11T09:43:51.435Z,99.40
2018-07-11T09:49:13.771Z,99.30
2018-07-11T09:51:42.659Z,99.30
2018-07-11T09:54:11.519Z,99.90
2018-07-11T09:56:40.497Z,99.90
2018-07-11T09:59:09.136Z,95.00
2018-07-11T10:01:40.457Z,85.40
2018-07-11T10:04:09.200Z,81.60
2018-07-11T10:06:37.921Z,72.80
2018-07-11T10:09:06.388Z,73.80
2018-07-11T10:11:34.976Z,79.10
2018-07-11T10:16:34.173Z,86.50
2018-07-11T10:19:03.798Z,91.10
2018-07-11T10:21:33.521Z,93.20
2018-07-11T10:24:03.265Z,97.50
2018-07-11T10:26:32.759Z,95.40
2018-07-11T10:29:01.590Z,97.90
2018-07-11T10:31:30.955Z,99.90
2018-07-11T10:33:59.727Z,99.90
2018-07-11T10:36:28.448Z,99.90
2018-07-11T10:38:58.318Z,99.90
2018-07-11T10:41:27.835Z,99.90
2018-07-11T10:43:56.475Z,99.90
2018-07-11T10:46:25.083Z,99.90
2018-07-11T10:48:54.427Z,99.10
2018-07-11T10:51:23.177Z,97.80
2018-07-11T10:53:52.326Z,92.70
2018-07-11T10:56:20.725Z,93.90
2018-07-11T10:58:49.174Z,94.50
2018-07-11T11:01:18.362Z,97.50
2018-07-11T11:03:47.240Z,98.00
2018-07-11T11:06:16.120Z,99.60
2018-07-11T11:08:45.454Z,99.90
2018-07-11T11:11:14.152Z,99.90
2018-07-11T11:13:42.610Z,99.90
2018-07-11T11:16:12.126Z,99.90
2018-07-11T11:18:40.522Z,99.90
2018-07-11T11:21:09.198Z,99.90
2018-07-11T11:23:38.889Z,99.90
2018-07-11T11:26:07.886Z,99.90
2018-07-11T11:28:36.336Z,99.90
2018-07-11T11:31:05.255Z,99.90
2018-07-11T11:33:34.741Z,99.90
2018-07-11T11:36:03.667Z,99.90
2018-07-11T11:38:32.571Z,99.90
2018-07-11T11:41:01.518Z,99.90
2018-07-11T11:43:30.092Z,99.90
2018-07-11T11:45:58.480Z,99.90
2018-07-11T11:48:27.255Z,99.90
2018-07-11T11:50:55.940Z,99.90
2018-07-11T11:53:24.439Z,99.90
2018-07-11T11:58:25.105Z,99.90
2018-07-11T12:00:53.654Z,99.90
2018-07-11T12:03:23.075Z,99.90
2018-07-11T12:05:51.555Z,99.90
2018-07-11T12:08:23.298Z,99.90
2018-07-11T12:10:52.077Z,99.90
2018-07-11T12:13:20.708Z,99.90
2018-07-11T12:15:50.375Z,99.90
2018-07-11T12:18:20.545Z,99.90
2018-07-11T12:20:49.098Z,99.90
2018-07-11T12:23:17.801Z,99.90
2018-07-11T12:26:24.477Z,99.90
2018-07-11T12:28:53.419Z,99.90
2018-07-11T12:31:22.678Z,99.90
2018-07-11T12:33:52.031Z,99.90
2018-07-11T12:36:21.484Z,99.90
2018-07-11T12:38:54.124Z,99.90
2018-07-11T12:41:24.150Z,99.90
2018-07-11T12:43:52.997Z,99.90
2018-07-11T12:46:22.253Z,99.30
2018-07-11T12:48:56.287Z,98.30
2018-07-11T12:51:25.361Z,92.90
2018-07-11T12:53:53.907Z,93.80
2018-07-11T12:56:22.689Z,95.60
2018-07-11T12:58:51.734Z,95.10
2018-07-11T13:01:20.840Z,94.70
2018-07-11T13:03:50.089Z,94.60
2018-07-11T13:06:18.751Z,96.90
2018-07-11T13:08:47.781Z,96.50
2018-07-11T13:11:16.289Z,96.30
2018-07-11T13:13:44.970Z,94.30
2018-07-11T13:16:16.595Z,95.60
2018-07-11T13:18:45.436Z,96.70
2018-07-11T13:21:14.039Z,96.00
2018-07-11T13:23:42.657Z,97.10
2018-07-11T13:26:11.471Z,94.70
2018-07-11T13:28:40.451Z,95.10
2018-07-11T13:31:09.161Z,94.70
2018-07-11T13:33:38.199Z,94.00
2018-07-11T13:36:06.908Z,94.40
2018-07-11T13:38:35.998Z,93.80
2018-07-11T13:43:32.916Z,96.30
2018-07-11T13:46:01.476Z,94.20
2018-07-11T13:48:31.682Z,93.70
2018-07-11T13:51:00.180Z,93.90
2018-07-11T13:53:28.799Z,93.80
2018-07-11T13:55:57.597Z,95.40
2018-07-11T13:58:26.119Z,94.00
2018-07-11T14:00:55.031Z,96.80
2018-07-11T14:03:23.694Z,95.80
2018-07-11T14:05:52.229Z,97.00
2018-07-11T14:08:21.004Z,97.30
2018-07-11T14:10:52.719Z,97.70
2018-07-11T14:13:21.487Z,99.80
2018-07-11T14:15:50.908Z,95.80
2018-07-11T14:18:19.468Z,97.60
2018-07-11T14:20:48.475Z,97.00
2018-07-11T14:23:27.211Z,97.00
2018-07-11T14:25:56.300Z,96.00
2018-07-11T14:28:24.834Z,96.30
2018-07-11T14:30:53.708Z,96.40
2018-07-11T14:33:24.140Z,96.60
2018-07-11T14:35:53.696Z,96.60
2018-07-11T14:38:22.689Z,98.60
2018-07-11T14:40:51.364Z,99.30
2018-07-11T14:43:20.538Z,99.70
2018-07-11T14:45:49.793Z,99.90
2018-07-11T14:48:18.423Z,99.90
2018-07-11T14:50:47.445Z,99.90
2018-07-11T14:53:16.763Z,99.90
2018-07-11T14:55:45.263Z,99.90
2018-07-11T14:58:13.942Z,99.90
2018-07-11T15:00:42.897Z,99.90
2018-07-11T15:03:11.816Z,99.80
2018-07-11T15:05:41.037Z,99.90
2018-07-11T15:08:09.778Z,99.90
2018-07-11T15:10:38.922Z,99.10
2018-07-11T15:13:07.527Z,99.90
2018-07-11T15:15:37.236Z,99.90
2018-07-11T15:18:05.847Z,99.90
2018-07-11T15:20:34.632Z,99.90
2018-07-11T15:23:03.950Z,99.20
2018-07-11T15:25:32.738Z,98.80
2018-07-11T15:28:02.044Z,99.50
2018-07-11T15:30:30.737Z,97.40
2018-07-11T15:32:59.899Z,96.90
2018-07-11T15:35:28.500Z,96.30
2018-07-11T15:37:57.995Z,96.60
2018-07-11T15:42:54.723Z,95.80
2018-07-11T15:45:23.703Z,96.40
2018-07-11T15:47:52.473Z,98.20
2018-07-11T15:50:20.940Z,98.50
2018-07-11T15:52:50.333Z,98.00
2018-07-11T15:55:18.815Z,99.20
2018-07-11T15:57:53.484Z,97.00
2018-07-11T16:00:30.632Z,98.50
2018-07-11T16:03:03.116Z,97.20
2018-07-11T16:05:32.094Z,98.90
2018-07-11T16:08:04.347Z,99.00
2018-07-11T16:10:47.540Z,97.60
2018-07-11T16:13:16.455Z,96.70
2018-07-11T16:18:14.615Z,96.10
2018-07-11T16:20:43.400Z,95.20
2018-07-11T16:23:12.421Z,95.80
2018-07-11T16:25:42.532Z,94.70
2018-07-11T16:28:11.740Z,95.50
2018-07-11T16:30:40.356Z,95.90
2018-07-11T16:33:09.601Z,97.70
2018-07-11T16:35:38.225Z,97.00
2018-07-11T16:38:06.872Z,96.60
2018-07-11T16:40:37.036Z,96.30
2018-07-11T16:43:06.115Z,95.90
2018-07-11T16:45:34.794Z,96.50
2018-07-11T16:48:03.594Z,96.90
2018-07-11T16:50:32.599Z,96.70
2018-07-11T16:53:01.530Z,96.90
2018-07-11T16:55:32.536Z,96.90
2018-07-11T16:58:01.138Z,98.10
2018-07-11T17:00:32.541Z,97.20
2018-07-11T17:03:05.489Z,97.10
2018-07-11T17:05:42.043Z,97.30
2018-07-11T17:08:14.043Z,98.10
2018-07-11T17:10:43.194Z,97.70
2018-07-11T17:13:23.213Z,99.50
2018-07-11T17:15:53.681Z,98.80
2018-07-11T17:18:29.706Z,98.40
2018-07-11T17:21:01.994Z,99.10
2018-07-11T17:23:35.801Z,99.70
2018-07-11T17:26:05.822Z,99.80
2018-07-11T17:28:34.487Z,99.50
2018-07-11T17:31:03.508Z,99.30
2018-07-11T17:33:32.263Z,99.40
2018-07-11T17:36:00.858Z,99.30
2018-07-11T17:38:31.004Z,99.50
2018-07-11T17:41:02.421Z,99.30
2018-07-11T17:43:35.842Z,99.20
2018-07-11T17:46:04.975Z,99.90
2018-07-11T17:48:44.661Z,99.90
2018-07-11T17:51:26.681Z,99.90
2018-07-11T17:53:57.349Z,99.90
2018-07-11T17:56:36.298Z,99.90
2018-07-11T17:59:05.372Z,99.90
2018-07-11T18:01:42.182Z,99.90
2018-07-11T18:07:53.181Z,99.90
2018-07-11T18:10:32.328Z,99.90
2018-07-11T18:14:13.162Z,99.90
2018-07-11T18:16:50.091Z,99.90
2018-07-11T18:19:30.143Z,99.90
2018-07-11T18:23:06.677Z,99.90
2018-07-11T18:27:48.093Z,99.90
2018-07-11T18:30:43.437Z,99.90
2018-07-11T18:34:24.841Z,99.90
2018-07-11T18:37:07.778Z,99.90
2018-07-11T18:39:48.197Z,99.90
2018-07-11T18:42:44.000Z,99.90
2018-07-11T18:45:49.977Z,99.90
2018-07-11T18:48:30.801Z,99.90
2018-07-11T18:51:15.366Z,99.90
2018-07-11T18:53:52.393Z,99.90
2018-07-11T18:56:43.184Z,99.90
2018-07-11T18:59:23.239Z,99.90
2018-07-11T19:02:03.663Z,99.90
2018-07-11T19:04:45.291Z,99.90
2018-07-11T19:08:24.038Z,99.90
2018-07-11T19:13:06.041Z,99.90
2018-07-11T19:15:43.458Z,99.90
2018-07-11T19:18:44.151Z,99.90
2018-07-11T19:21:17.464Z,99.90
2018-07-11T19:24:06.039Z,99.90
2018-07-11T19:26:54.728Z,99.90
2018-07-11T19:29:37.989Z,99.90
2018-07-11T19:34:55.424Z,99.90
2018-07-11T19:37:36.605Z,99.90
2018-07-11T19:40:15.017Z,99.90
2018-07-11T19:42:55.365Z,99.90
2018-07-11T19:45:32.659Z,99.90
2018-07-11T19:48:27.325Z,99.90
2018-07-11T19:51:07.801Z,99.90
2018-07-11T19:53:50.728Z,99.90
2018-07-11T19:56:26.846Z,99.90
2018-07-11T19:58:56.445Z,99.90
2018-07-11T20:01:24.990Z,99.90
2018-07-11T20:03:53.863Z,99.90
2018-07-11T20:06:22.870Z,99.90
2018-07-11T20:08:52.294Z,99.90
2018-07-11T20:11:21.874Z,99.90
2018-07-11T20:13:51.700Z,99.90
2018-07-11T20:16:20.717Z,99.90
2018-07-11T20:18:50.272Z,99.90
2018-07-11T20:21:19.279Z,99.90
2018-07-11T20:23:48.789Z,99.90
2018-07-11T20:26:18.064Z,99.90
2018-07-11T20:28:46.886Z,99.90
2018-07-11T20:31:16.114Z,99.90
2018-07-11T20:33:44.630Z,99.90
2018-07-11T20:36:13.271Z,99.90
2018-07-11T20:38:43.132Z,99.90
2018-07-11T20:41:11.665Z,99.90
2018-07-11T20:43:40.791Z,99.90
2018-07-11T20:46:10.421Z,99.90
2018-07-11T20:48:40.045Z,99.90
2018-07-11T20:51:10.076Z,99.90
2018-07-11T20:53:38.845Z,99.90
2018-07-11T20:56:07.722Z,99.90
2018-07-11T20:58:47.311Z,99.90
2018-07-11T21:01:27.494Z,99.90
2018-07-11T21:04:15.191Z,99.90
2018-07-11T21:07:22.558Z,99.90
2018-07-11T21:10:06.157Z,99.90
2018-07-11T21:13:17.125Z,99.90
2018-07-11T21:16:09.112Z,99.90
2018-07-11T21:18:49.683Z,99.90
2018-07-11T21:21:19.423Z,99.90
2018-07-11T21:23:48.166Z,99.90
2018-07-11T21:26:17.784Z,99.90
2018-07-11T21:28:46.247Z,99.90
2018-07-11T21:31:15.610Z,99.90
2018-07-11T21:33:44.782Z,99.90
2018-07-11T21:36:13.861Z,99.90
2018-07-11T21:38:44.690Z,99.90
2018-07-11T21:41:14.250Z,99.90
2018-07-11T21:43:44.047Z,99.90
2018-07-11T21:46:12.857Z,99.90
2018-07-11T21:48:41.762Z,99.90
2018-07-11T21:51:10.564Z,99.90
2018-07-11T21:53:39.818Z,99.90
